createdAt,value
2022-12-08T00:01:32.594Z,100495.88
2022-12-08T00:04:02.397Z,100491.41
2022-12-08T00:06:54.407Z,100496.59
2022-12-08T00:09:33.402Z,100494.63
2022-12-08T00:12:13.589Z,100494.56
2022-12-08T00:14:42.713Z,100494.25
2022-12-08T00:17:11.892Z,100483.66
2022-12-08T00:19:40.880Z,100490.19
2022-12-08T00:22:10.390Z,100485.69
2022-12-08T00:24:39.840Z,100496.66
2022-12-08T00:27:09.708Z,100492.97
2022-12-08T00:29:37.808Z,100480.34
2022-12-08T00:32:07.004Z,100484.66
2022-12-08T00:34:34.712Z,100472.19
2022-12-08T00:37:02.226Z,100483.88
2022-12-08T00:39:29.706Z,100467.75
2022-12-08T00:42:12.151Z,100479.25
2022-12-08T00:44:44.089Z,100479.31
2022-12-08T00:47:12.759Z,100466.28
2022-12-08T00:49:40.449Z,100472.44
2022-12-08T00:52:08.043Z,100461.88
2022-12-08T00:54:35.536Z,100464.84
2022-12-08T00:57:03.212Z,100467.84
2022-12-08T00:59:30.681Z,100466.44
2022-12-08T01:01:58.356Z,100460.78
2022-12-08T01:04:26.259Z,100463.38
2022-12-08T01:06:53.975Z,100454.19
2022-12-08T01:09:21.487Z,100463.53
2022-12-08T01:11:49.157Z,100462.50
2022-12-08T01:14:16.822Z,100464.47
2022-12-08T01:16:44.449Z,100463.22
2022-12-08T01:19:14.635Z,100468.22
2022-12-08T01:21:43.723Z,100459.56
2022-12-08T01:24:19.413Z,100471.31
2022-12-08T01:26:48.074Z,100474.81
2022-12-08T01:29:15.916Z,100470.06
2022-12-08T01:31:43.445Z,100471.97
2022-12-08T01:34:11.551Z,100472.13
2022-12-08T01:36:39.404Z,100468.03
2022-12-08T01:39:10.940Z,100460.31
2022-12-08T01:41:38.674Z,100462.56
2022-12-08T01:44:09.015Z,100459.09
2022-12-08T01:46:48.608Z,100455.03
2022-12-08T01:49:18.409Z,100452.44
2022-12-08T01:51:57.291Z,100456.81
2022-12-08T01:54:28.185Z,100459.94
2022-12-08T01:57:03.559Z,100446.91
2022-12-08T01:59:35.218Z,100445.88
2022-12-08T02:02:02.945Z,100446.91
2022-12-08T02:04:30.602Z,100437.31
2022-12-08T02:07:01.430Z,100435.75
2022-12-08T02:09:31.268Z,100439.44
2022-12-08T02:11:59.944Z,100440.53
2022-12-08T02:14:27.572Z,100441.78
2022-12-08T02:17:03.927Z,100434.88
2022-12-08T02:20:05.467Z,100439.97
2022-12-08T02:22:40.618Z,100421.56
2022-12-08T02:25:19.812Z,100435.72
2022-12-08T02:28:07.862Z,100428.47
2022-12-08T02:30:53.814Z,100429.94
2022-12-08T02:33:51.175Z,100427.41
2022-12-08T02:36:41.817Z,100420.13
2022-12-08T02:39:23.443Z,100426.75
2022-12-08T02:42:11.558Z,100422.50
2022-12-08T02:44:45.849Z,100423.31
2022-12-08T02:47:18.265Z,100422.53
2022-12-08T02:49:46.205Z,100413.31
2022-12-08T02:52:13.708Z,100421.50
2022-12-08T02:54:46.602Z,100406.13
2022-12-08T02:57:33.018Z,100411.38
2022-12-08T03:00:03.766Z,100409.56
2022-12-08T03:02:43.975Z,100407.06
2022-12-08T03:05:29.493Z,100407.44
2022-12-08T03:08:26.106Z,100394.25
2022-12-08T03:11:01.750Z,100396.50
2022-12-08T03:13:54.663Z,100389.56
2022-12-08T03:16:28.262Z,100392.25
2022-12-08T03:19:21.133Z,100386.38
2022-12-08T03:22:00.461Z,100382.91
2022-12-08T03:24:28.624Z,100379.13
2022-12-08T03:27:21.055Z,100403.25
2022-12-08T03:29:50.922Z,100398.97
2022-12-08T03:32:44.413Z,100404.06
2022-12-08T03:35:17.590Z,100389.56
2022-12-08T03:37:45.032Z,100394.25
2022-12-08T03:40:16.552Z,100388.69
2022-12-08T03:42:44.190Z,100391.66
2022-12-08T03:45:12.071Z,100392.06
2022-12-08T03:47:39.865Z,100392.09
2022-12-08T03:50:07.895Z,100391.31
2022-12-08T03:52:35.475Z,100393.13
2022-12-08T03:55:03.656Z,100393.03
2022-12-08T03:57:31.063Z,100383.19
2022-12-08T03:59:58.594Z,100388.78
2022-12-08T04:02:26.263Z,100390.53
2022-12-08T04:04:53.784Z,100385.00
2022-12-08T04:07:21.281Z,100371.22
2022-12-08T04:09:48.781Z,100381.75
2022-12-08T04:12:16.320Z,100373.34
2022-12-08T04:14:43.816Z,100377.75
2022-12-08T04:17:11.377Z,100363.44
2022-12-08T04:19:40.986Z,100370.53
2022-12-08T04:22:08.477Z,100359.47
2022-12-08T04:24:35.929Z,100376.16
2022-12-08T04:27:03.633Z,100377.16
2022-12-08T04:29:31.191Z,100364.75
2022-12-08T04:31:58.908Z,100370.94
2022-12-08T04:34:26.553Z,100362.84
2022-12-08T04:36:54.025Z,100364.28
2022-12-08T04:39:21.517Z,100360.16
2022-12-08T04:41:48.968Z,100360.94
2022-12-08T04:44:16.415Z,100361.19
2022-12-08T04:46:44.062Z,100362.22
2022-12-08T04:49:11.688Z,100353.88
2022-12-08T04:51:39.290Z,100350.06
2022-12-08T04:54:06.767Z,100359.06
2022-12-08T04:56:34.295Z,100370.25
2022-12-08T04:59:01.836Z,100371.22
2022-12-08T05:01:29.383Z,100370.88
2022-12-08T05:03:57.083Z,100370.97
2022-12-08T05:06:24.586Z,100376.19
2022-12-08T05:08:52.056Z,100369.13
2022-12-08T05:11:19.795Z,100370.34
2022-12-08T05:13:47.688Z,100381.47
2022-12-08T05:16:15.854Z,100374.03
2022-12-08T05:18:43.405Z,100365.47
2022-12-08T05:21:11.320Z,100363.00
2022-12-08T05:23:38.927Z,100371.31
2022-12-08T05:26:06.387Z,100375.59
2022-12-08T05:28:42.953Z,100359.13
2022-12-08T05:31:14.073Z,100355.31
2022-12-08T05:33:42.280Z,100357.03
2022-12-08T05:36:12.025Z,100362.91
2022-12-08T05:38:41.067Z,100356.66
2022-12-08T05:41:09.899Z,100361.03
2022-12-08T05:43:37.359Z,100347.81
2022-12-08T05:46:05.478Z,100350.78
2022-12-08T05:48:33.105Z,100348.13
2022-12-08T05:51:01.370Z,100357.41
2022-12-08T05:53:28.918Z,100346.66
2022-12-08T05:55:56.513Z,100346.66
2022-12-08T05:58:24.066Z,100349.47
2022-12-08T06:00:51.685Z,100357.00
2022-12-08T06:03:20.061Z,100351.50
2022-12-08T06:05:48.154Z,100360.09
2022-12-08T06:08:15.751Z,100358.97
2022-12-08T06:10:45.576Z,100350.56
2022-12-08T06:13:14.214Z,100344.59
2022-12-08T06:15:42.309Z,100362.41
2022-12-08T06:18:10.876Z,100356.34
2022-12-08T06:20:38.587Z,100357.75
2022-12-08T06:23:05.956Z,100374.84
2022-12-08T06:25:33.603Z,100362.41
2022-12-08T06:28:01.284Z,100358.59
2022-12-08T06:30:28.969Z,100356.25
2022-12-08T06:32:56.498Z,100370.53
2022-12-08T06:35:24.029Z,100368.41
2022-12-08T06:37:51.788Z,100377.56
2022-12-08T06:40:20.044Z,100373.25
2022-12-08T06:42:47.706Z,100365.50
2022-12-08T06:45:17.732Z,100362.31
2022-12-08T06:47:45.527Z,100364.66
2022-12-08T06:50:14.231Z,100354.78
2022-12-08T06:52:54.142Z,100370.34
2022-12-08T06:55:57.427Z,100370.41
2022-12-08T06:58:14.435Z,100368.78
2022-12-08T07:00:42.236Z,100374.22
2022-12-08T07:03:10.766Z,100374.50
2022-12-08T07:05:38.954Z,100363.44
2022-12-08T07:08:08.439Z,100372.09
2022-12-08T07:10:36.435Z,100365.84
2022-12-08T07:13:03.931Z,100369.91
2022-12-08T07:15:31.464Z,100367.41
2022-12-08T07:18:00.268Z,100365.94
2022-12-08T07:20:28.334Z,100356.25
2022-12-08T07:22:56.134Z,100359.88
2022-12-08T07:25:23.688Z,100353.41
2022-12-08T07:27:52.732Z,100353.72
2022-12-08T07:30:20.282Z,100348.47
2022-12-08T07:32:47.885Z,100365.31
2022-12-08T07:35:15.457Z,100363.06
2022-12-08T07:37:43.215Z,100352.75
2022-12-08T07:40:11.317Z,100362.84
2022-12-08T07:42:38.921Z,100352.25
2022-12-08T07:45:06.992Z,100357.97
2022-12-08T07:47:34.518Z,100354.69
2022-12-08T07:50:02.291Z,100361.25
2022-12-08T07:52:29.916Z,100350.09
2022-12-08T07:54:57.469Z,100352.47
2022-12-08T07:57:24.892Z,100353.16
2022-12-08T07:59:52.380Z,100352.41
2022-12-08T08:02:25.217Z,100363.31
2022-12-08T08:04:53.986Z,100353.66
2022-12-08T08:07:21.621Z,100359.16
2022-12-08T08:09:49.005Z,100350.19
2022-12-08T08:12:31.433Z,100359.72
2022-12-08T08:15:00.596Z,100361.06
2022-12-08T08:17:29.000Z,100352.59
2022-12-08T08:19:56.764Z,100361.88
2022-12-08T08:22:25.678Z,100360.59
2022-12-08T08:24:54.221Z,100357.63
2022-12-08T08:27:22.618Z,100344.09
2022-12-08T08:29:50.128Z,100338.44
2022-12-08T08:32:17.622Z,100354.97
2022-12-08T08:34:45.134Z,100347.09
2022-12-08T08:37:12.750Z,100345.25
2022-12-08T08:39:40.339Z,100339.53
2022-12-08T08:42:07.813Z,100345.13
2022-12-08T08:44:35.674Z,100346.44
2022-12-08T08:47:03.146Z,100352.81
2022-12-08T08:49:30.670Z,100342.66
2022-12-08T08:51:58.318Z,100341.22
2022-12-08T08:54:25.805Z,100342.34
2022-12-08T08:56:53.353Z,100344.66
2022-12-08T08:59:20.824Z,100359.56
2022-12-08T09:01:48.341Z,100363.56
2022-12-08T09:04:15.913Z,100367.75
2022-12-08T09:06:45.203Z,100366.38
2022-12-08T09:09:12.780Z,100368.69
2022-12-08T09:11:40.688Z,100368.25
2022-12-08T09:14:10.146Z,100363.97
2022-12-08T09:16:41.914Z,100368.03
2022-12-08T09:19:10.135Z,100368.75
2022-12-08T09:21:37.592Z,100364.16
2022-12-08T09:24:05.258Z,100363.03
2022-12-08T09:26:32.708Z,100367.84
2022-12-08T09:29:00.111Z,100370.59
2022-12-08T09:31:27.651Z,100373.00
2022-12-08T09:33:55.193Z,100376.44
2022-12-08T09:36:23.353Z,100372.47
2022-12-08T09:38:53.531Z,100371.19
2022-12-08T09:41:48.605Z,100370.44
2022-12-08T09:44:38.928Z,100368.06
2022-12-08T09:47:16.244Z,100367.06
2022-12-08T09:50:17.378Z,100365.78
2022-12-08T09:52:50.646Z,100358.03
2022-12-08T09:55:25.231Z,100364.09
2022-12-08T09:58:02.551Z,100354.25
2022-12-08T10:00:30.082Z,100346.97
2022-12-08T10:02:57.699Z,100347.28
2022-12-08T10:05:27.869Z,100356.31
2022-12-08T10:08:12.347Z,100351.31
2022-12-08T10:10:46.991Z,100358.31
2022-12-08T10:13:26.455Z,100360.13
2022-12-08T10:16:38.660Z,100355.34
2022-12-08T10:19:18.762Z,100352.94
2022-12-08T10:21:46.655Z,100345.38
2022-12-08T10:24:32.354Z,100337.97
2022-12-08T10:27:01.618Z,100340.88
2022-12-08T10:29:29.056Z,100339.66
2022-12-08T10:31:59.568Z,100332.16
2022-12-08T10:34:27.136Z,100340.69
2022-12-08T10:37:00.675Z,100326.22
2022-12-08T10:39:36.401Z,100333.34
2022-12-08T10:42:22.121Z,100328.16
2022-12-08T10:44:54.156Z,100330.06
2022-12-08T10:47:23.778Z,100318.16
2022-12-08T10:50:45.128Z,100318.38
2022-12-08T10:53:14.668Z,100320.78
2022-12-08T10:56:05.056Z,100316.31
2022-12-08T10:58:36.695Z,100313.16
2022-12-08T11:01:26.672Z,100315.91
2022-12-08T11:04:03.064Z,100306.38
2022-12-08T11:06:30.435Z,100307.16
2022-12-08T11:09:00.678Z,100313.38
2022-12-08T11:11:58.750Z,100320.31
2022-12-08T11:14:32.355Z,100316.66
2022-12-08T11:17:08.625Z,100307.06
2022-12-08T11:19:45.325Z,100301.03
2022-12-08T11:22:32.195Z,100304.53
2022-12-08T11:25:12.909Z,100297.53
2022-12-08T11:27:44.418Z,100297.66
2022-12-08T11:30:26.037Z,100298.44
2022-12-08T11:32:57.399Z,100293.19
2022-12-08T11:35:32.675Z,100300.03
2022-12-08T11:38:22.380Z,100301.75
2022-12-08T11:40:55.373Z,100295.50
2022-12-08T11:43:34.608Z,100300.06
2022-12-08T11:46:25.056Z,100291.47
2022-12-08T11:49:06.204Z,100295.81
2022-12-08T11:51:44.065Z,100286.31
2022-12-08T11:54:17.840Z,100292.44
2022-12-08T11:56:52.962Z,100283.81
2022-12-08T11:59:28.838Z,100282.09
2022-12-08T12:02:00.162Z,100274.25
2022-12-08T12:04:38.396Z,100281.22
2022-12-08T12:07:39.880Z,100282.97
2022-12-08T12:10:25.332Z,100270.75
2022-12-08T12:13:07.894Z,100266.41
2022-12-08T12:16:10.929Z,100267.28
2022-12-08T12:18:46.427Z,100245.47
2022-12-08T12:21:20.441Z,100251.56
2022-12-08T12:23:58.938Z,100246.31
2022-12-08T12:26:30.014Z,100241.06
2022-12-08T12:29:04.189Z,100238.44
2022-12-08T12:31:38.614Z,100238.47
2022-12-08T12:34:17.368Z,100234.97
2022-12-08T12:36:58.505Z,100241.09
2022-12-08T12:39:30.996Z,100240.19
2022-12-08T12:42:00.816Z,100238.47
2022-12-08T12:44:28.231Z,100238.47
2022-12-08T12:46:58.546Z,100232.38
2022-12-08T12:49:37.965Z,100227.16
2022-12-08T12:52:31.209Z,100231.50
2022-12-08T12:54:58.515Z,100236.72
2022-12-08T12:57:36.746Z,100216.63
2022-12-08T13:00:04.072Z,100214.91
2022-12-08T13:02:46.142Z,100215.75
2022-12-08T13:05:13.485Z,100216.63
2022-12-08T13:07:50.376Z,100212.28
2022-12-08T13:10:34.404Z,100213.16
2022-12-08T13:13:06.198Z,100215.78
2022-12-08T13:15:47.004Z,100216.69
2022-12-08T13:18:40.117Z,100214.94
2022-12-08T13:21:10.367Z,100211.41
2022-12-08T13:23:38.034Z,100207.94
2022-12-08T13:26:13.514Z,100207.03
2022-12-08T13:28:58.966Z,100214.91
2022-12-08T13:31:35.321Z,100202.72
2022-12-08T13:34:25.396Z,100205.31
2022-12-08T13:37:06.948Z,100197.47
2022-12-08T13:39:46.769Z,100196.59
2022-12-08T13:42:14.247Z,100196.59
2022-12-08T13:45:19.851Z,100190.50
2022-12-08T13:48:05.921Z,100188.75
2022-12-08T13:59:25.516Z,100200.06
2022-12-08T14:01:55.729Z,100190.53
2022-12-08T14:07:12.543Z,100192.22
2022-12-08T14:09:41.787Z,100196.59
2022-12-08T14:12:20.375Z,100196.63
2022-12-08T14:15:03.325Z,100185.22
2022-12-08T14:17:32.291Z,100177.38
2022-12-08T14:20:01.000Z,100193.09
2022-12-08T14:22:37.476Z,100189.63
2022-12-08T14:25:07.132Z,100198.34
2022-12-08T14:27:37.496Z,100200.09
2022-12-08T14:30:14.055Z,100201.84
2022-12-08T14:32:54.460Z,100207.06
2022-12-08T14:35:36.832Z,100199.19
2022-12-08T14:38:14.890Z,100198.34
2022-12-08T14:40:45.163Z,100203.56
2022-12-08T14:43:19.502Z,100207.03
2022-12-08T14:45:49.016Z,100207.94
2022-12-08T14:48:28.182Z,100195.75
2022-12-08T14:51:03.312Z,100209.69
2022-12-08T14:53:46.438Z,100221.88
2022-12-08T14:56:54.868Z,100214.84
2022-12-08T14:59:27.448Z,100221.78
2022-12-08T15:02:25.690Z,100217.41
2022-12-08T15:05:12.461Z,100221.75
2022-12-08T15:07:54.761Z,100219.09
2022-12-08T15:10:29.649Z,100220.84
2022-12-08T15:13:03.558Z,100222.53
2022-12-08T15:15:32.789Z,100238.16
2022-12-08T15:18:11.320Z,100236.47
2022-12-08T15:20:38.728Z,100232.16
2022-12-08T15:23:17.585Z,100221.72
2022-12-08T15:25:45.055Z,100225.16
2022-12-08T15:28:18.352Z,100236.47
2022-12-08T15:30:46.475Z,100233.69
2022-12-08T15:33:14.554Z,100230.25
2022-12-08T15:35:42.323Z,100241.47
2022-12-08T15:38:36.335Z,100236.19
2022-12-08T15:41:07.988Z,100224.81
2022-12-08T15:43:37.579Z,100235.28
2022-12-08T15:46:05.249Z,100232.63
2022-12-08T15:48:32.687Z,100233.50
2022-12-08T15:51:00.129Z,100226.50
2022-12-08T15:53:27.878Z,100230.00
2022-12-08T15:56:26.399Z,100221.28
2022-12-08T15:58:58.800Z,100229.88
2022-12-08T16:01:26.957Z,100240.03
2022-12-08T16:04:47.271Z,100231.31
2022-12-08T16:09:42.263Z,100243.50
2022-12-08T16:15:55.093Z,100240.00
2022-12-08T16:18:25.003Z,100241.81
2022-12-08T16:21:16.908Z,100245.25
2022-12-08T16:23:43.578Z,100244.56
2022-12-08T16:27:00.967Z,100241.09
2022-12-08T16:29:08.733Z,100238.41
2022-12-08T16:31:36.454Z,100241.06
2022-12-08T16:34:03.926Z,100235.84
2022-12-08T16:36:31.396Z,100240.28
2022-12-08T16:38:58.786Z,100227.84
2022-12-08T16:41:45.110Z,100238.31
2022-12-08T16:44:12.591Z,100240.00
2022-12-08T16:46:40.247Z,100234.69
2022-12-08T16:49:09.800Z,100218.00
2022-12-08T16:51:37.431Z,100220.66
2022-12-08T16:54:05.029Z,100214.56
2022-12-08T16:56:33.656Z,100224.34
2022-12-08T16:59:02.404Z,100221.22
2022-12-08T17:01:30.271Z,100225.53
2022-12-08T17:06:45.367Z,100222.28
2022-12-08T17:09:12.826Z,100237.09
2022-12-08T17:11:43.310Z,100244.94
2022-12-08T17:14:15.066Z,100243.97
2022-12-08T17:16:43.737Z,100245.00
2022-12-08T17:19:13.441Z,100244.31
2022-12-08T17:21:41.381Z,100248.81
2022-12-08T17:24:08.785Z,100246.28
2022-12-08T17:26:36.675Z,100238.34
2022-12-08T17:29:04.546Z,100240.19
2022-12-08T17:31:33.126Z,100243.69
2022-12-08T17:34:02.336Z,100241.91
2022-12-08T17:36:30.043Z,100228.91
2022-12-08T17:38:59.475Z,100235.03
2022-12-08T17:41:27.295Z,100247.00
2022-12-08T17:43:55.020Z,100242.44
2022-12-08T17:46:22.917Z,100250.50
2022-12-08T17:48:50.702Z,100251.53
2022-12-08T17:51:18.565Z,100249.84
2022-12-08T17:53:46.034Z,100255.00
2022-12-08T17:56:20.632Z,100255.91
2022-12-08T17:58:54.007Z,100236.84
2022-12-08T18:01:23.719Z,100244.81
2022-12-08T18:03:51.614Z,100235.97
2022-12-08T18:06:19.279Z,100252.59
2022-12-08T18:08:46.782Z,100231.47
2022-12-08T18:11:17.102Z,100235.16
2022-12-08T18:13:46.014Z,100243.03
2022-12-08T18:16:14.318Z,100236.94
2022-12-08T18:18:42.319Z,100242.09
2022-12-08T18:21:10.205Z,100250.00
2022-12-08T18:23:38.814Z,100249.16
2022-12-08T18:26:07.476Z,100234.28
2022-12-08T18:28:35.442Z,100255.13
2022-12-08T18:31:07.373Z,100243.94
2022-12-08T18:33:35.191Z,100242.16
2022-12-08T18:36:08.257Z,100253.47
2022-12-08T18:38:38.880Z,100255.25
2022-12-08T18:41:08.848Z,100250.13
2022-12-08T18:43:37.258Z,100255.41
2022-12-08T18:46:10.112Z,100265.66
2022-12-08T18:48:40.409Z,100272.41
2022-12-08T18:51:12.589Z,100263.50
2022-12-08T18:53:40.434Z,100277.44
2022-12-08T18:56:08.816Z,100280.19
2022-12-08T18:58:36.214Z,100273.22
2022-12-08T19:01:03.957Z,100257.13
2022-12-08T19:03:31.483Z,100275.47
2022-12-08T19:06:03.676Z,100250.50
2022-12-08T19:08:31.779Z,100255.91
2022-12-08T19:10:59.952Z,100244.53
2022-12-08T19:13:27.559Z,100242.69
2022-12-08T19:15:54.996Z,100252.16
2022-12-08T19:18:22.935Z,100256.28
2022-12-08T19:20:50.378Z,100250.84
2022-12-08T19:23:18.060Z,100256.47
2022-12-08T19:25:45.837Z,100253.97
2022-12-08T19:28:13.251Z,100252.59
2022-12-08T19:30:40.741Z,100257.22
2022-12-08T19:33:08.523Z,100259.31
2022-12-08T19:35:36.569Z,100252.44
2022-12-08T19:38:07.239Z,100262.16
2022-12-08T19:40:53.510Z,100249.88
2022-12-08T19:43:40.774Z,100251.31
2022-12-08T19:46:08.751Z,100271.34
2022-12-08T19:48:36.355Z,100252.56
2022-12-08T19:51:04.720Z,100251.75
2022-12-08T19:53:32.275Z,100261.41
2022-12-08T19:55:59.836Z,100243.13
2022-12-08T19:58:27.302Z,100246.66
2022-12-08T20:00:55.574Z,100245.72
2022-12-08T20:03:23.175Z,100238.69
2022-12-08T20:05:53.384Z,100238.72
2022-12-08T20:08:20.893Z,100248.41
2022-12-08T20:10:48.345Z,100246.69
2022-12-08T20:13:34.907Z,100255.34
2022-12-08T20:16:02.460Z,100225.66
2022-12-08T20:18:30.303Z,100231.81
2022-12-08T20:20:57.726Z,100227.56
2022-12-08T20:23:25.301Z,100228.16
2022-12-08T20:25:52.812Z,100227.97
2022-12-08T20:28:20.709Z,100230.00
2022-12-08T20:30:49.178Z,100239.59
2022-12-08T20:33:18.533Z,100235.38
2022-12-08T20:35:46.603Z,100241.34
2022-12-08T20:38:14.281Z,100239.72
2022-12-08T20:40:44.009Z,100236.72
2022-12-08T20:43:11.663Z,100236.66
2022-12-08T20:45:39.540Z,100237.78
2022-12-08T20:48:07.301Z,100242.19
2022-12-08T20:50:35.229Z,100234.88
2022-12-08T20:53:03.048Z,100232.97
2022-12-08T20:55:30.630Z,100229.63
2022-12-08T20:57:58.254Z,100235.84
2022-12-08T21:00:27.292Z,100231.81
2022-12-08T21:02:56.832Z,100221.06
2022-12-08T21:05:24.983Z,100229.88
2022-12-08T21:07:52.778Z,100229.16
2022-12-08T21:10:20.462Z,100234.34
2022-12-08T21:12:48.214Z,100228.38
2022-12-08T21:15:15.843Z,100232.63
2022-12-08T21:17:43.506Z,100228.09
2022-12-08T21:20:11.506Z,100222.88
2022-12-08T21:22:40.283Z,100223.94
2022-12-08T21:25:08.618Z,100236.97
2022-12-08T21:27:38.094Z,100238.03
2022-12-08T21:30:07.686Z,100251.13
2022-12-08T21:32:37.484Z,100250.31
2022-12-08T21:35:06.711Z,100261.59
2022-12-08T21:37:34.420Z,100248.50
2022-12-08T21:40:02.133Z,100237.22
2022-12-08T21:42:44.695Z,100240.66
2022-12-08T21:45:16.273Z,100237.16
2022-12-08T21:47:44.764Z,100241.56
2022-12-08T21:50:13.325Z,100249.53
2022-12-08T21:52:43.392Z,100256.56
2022-12-08T21:55:12.549Z,100245.94
2022-12-08T21:57:40.984Z,100245.00
2022-12-08T22:00:11.587Z,100265.03
2022-12-08T22:02:39.577Z,100261.56
2022-12-08T22:05:07.541Z,100259.06
2022-12-08T22:07:38.600Z,100266.00
2022-12-08T22:10:08.535Z,100262.44
2022-12-08T22:12:37.223Z,100255.47
2022-12-08T22:15:10.191Z,100261.66
2022-12-08T22:17:40.159Z,100260.69
2022-12-08T22:20:11.887Z,100263.28
2022-12-08T22:22:42.826Z,100264.16
2022-12-08T22:25:31.374Z,100262.44
2022-12-08T22:28:05.464Z,100278.19
2022-12-08T22:30:53.793Z,100269.50
2022-12-08T22:33:37.493Z,100276.38
2022-12-08T22:36:20.845Z,100259.75
2022-12-08T22:38:54.793Z,100259.72
2022-12-08T22:41:25.100Z,100259.75
2022-12-08T22:44:27.465Z,100271.28
2022-12-08T22:47:11.620Z,100260.78
2022-12-08T22:49:50.272Z,100252.88
2022-12-08T22:52:28.192Z,100247.72
2022-12-08T22:55:27.104Z,100248.50
2022-12-08T22:58:36.407Z,100248.63
2022-12-08T23:01:31.894Z,100236.31
2022-12-08T23:04:04.828Z,100245.84
2022-12-08T23:07:01.357Z,100237.97
2022-12-08T23:09:36.966Z,100239.72
2022-12-08T23:12:11.127Z,100240.63
2022-12-08T23:15:03.513Z,100231.84
2022-12-08T23:20:44.787Z,100230.88
2022-12-08T23:23:34.653Z,100230.81
2022-12-08T23:26:27.958Z,100215.09
2022-12-08T23:29:16.731Z,100221.28
2022-12-08T23:32:30.293Z,100214.31
2022-12-08T23:35:04.580Z,100218.72
2022-12-08T23:38:01.220Z,100206.56
2022-12-08T23:40:54.529Z,100203.09
2022-12-08T23:43:55.462Z,100196.06
2022-12-08T23:47:07.292Z,100205.66
2022-12-08T23:50:33.428Z,100190.00
2022-12-08T23:59:26.117Z,100183.88
